コペンハーゲン の空港の天気 - METARとTAF

コペンハーゲン国際空港 ( EKCH / CPH ) - デンマーク コペンハーゲン
飛行場実況気象(Metar)
観測時間09/22 02:50 CEST (09/22 00:50 UTC)
風向・風速西南西 2m/s
視程1000m
天気現象散在した霧
なし
気温10℃
湿度100%
気圧1014hPa
METAREKCH 220050Z 24003KT 1000 R22L/0125D R04L/0300N R12/0225N BCFG NSC 10/10 Q1014 BECMG 0200 VV002
過去の天気等 Google飛行場航空写真 Wunderground天気予報

過去48時間のMETAR

飛行場予報(TAF)
発表時間: 9/22 01:09 CEST (9/21 23:09 UTC)
予報対象時間: 22日2時 CEST ~ 23日2時 CEST
風向・風速南 1m/s
視程3500m
天気現象地霧 もや
なし
22日2時 CEST ~ 22日8時 CEST に一時的に
視程200m
天気現象
全天を覆う雲 鉛直視程 30m
22日8時 CEST ~ 22日10時 CEST に徐々に
視程10km以上
天気現象運行に影響にある天気現象が終了
22日10時 CEST ~ 22日12時 CEST に一時的に
全天の8割程度の雲 雲底高度 150m
TAF EKCH 212309Z 2200/2224 18002KT 3500 MIFG BR NSC
TEMPO 2200/2206 0200 FG VV001
BECMG 2206/2208 9999 NSW
TEMPO 2208/2210 BKN005